createdAt,value
2022-08-18T00:01:16.654Z,86082.41
2022-08-18T00:03:55.456Z,86064.88
2022-08-18T00:06:28.659Z,86073.03
2022-08-18T00:08:58.992Z,86071.00
2022-08-18T00:11:28.504Z,86081.66
2022-08-18T00:14:22.245Z,86073.88
2022-08-18T00:16:53.937Z,86038.78
2022-08-18T00:19:47.192Z,86067.75
2022-08-18T00:22:15.348Z,86082.81
2022-08-18T00:24:55.154Z,86054.63
2022-08-18T00:27:28.774Z,86059.00
2022-08-18T00:29:59.433Z,86066.47
2022-08-18T00:32:33.959Z,86080.78
2022-08-18T00:35:08.028Z,86079.59
2022-08-18T00:37:36.907Z,86071.25
2022-08-18T00:40:05.093Z,86054.84
2022-08-18T00:42:34.253Z,86068.53
2022-08-18T00:45:04.394Z,86050.34
2022-08-18T00:47:41.146Z,86057.34
2022-08-18T00:50:37.628Z,86069.50
2022-08-18T00:53:15.188Z,86047.88
2022-08-18T00:55:51.355Z,86043.22
2022-08-18T00:58:35.334Z,86047.09
2022-08-18T01:01:07.018Z,86044.28
2022-08-18T01:03:40.062Z,86032.72
2022-08-18T01:06:16.094Z,86046.31
2022-08-18T01:08:44.601Z,86047.66
2022-08-18T01:11:14.631Z,86032.53
2022-08-18T01:13:44.098Z,86059.19
2022-08-18T01:16:30.963Z,86069.84
2022-08-18T01:19:17.504Z,86073.25
2022-08-18T01:21:51.970Z,86041.06
2022-08-18T01:24:46.881Z,86038.00
2022-08-18T01:27:18.820Z,86058.00
2022-08-18T01:29:49.773Z,86064.28
2022-08-18T01:32:23.319Z,86060.16
2022-08-18T01:34:52.716Z,86040.91
2022-08-18T01:37:23.007Z,86064.97
2022-08-18T01:41:00.999Z,86000.91
2022-08-18T01:42:39.784Z,86001.75
2022-08-18T01:45:08.836Z,86018.75
2022-08-18T01:47:47.713Z,86049.66
2022-08-18T01:50:17.808Z,86051.09
2022-08-18T01:52:45.522Z,86054.50
2022-08-18T01:55:14.804Z,86042.34
2022-08-18T01:57:43.272Z,86057.06
2022-08-18T02:00:14.189Z,86060.56
2022-08-18T02:02:42.345Z,86068.31
2022-08-18T02:05:15.844Z,86021.94
2022-08-18T02:07:44.485Z,86002.03
2022-08-18T02:10:12.755Z,86049.84
2022-08-18T02:12:44.738Z,86059.28
2022-08-18T02:15:13.179Z,86029.31
2022-08-18T02:17:45.812Z,86062.63
2022-08-18T02:20:16.942Z,86058.78
2022-08-18T02:22:45.781Z,86017.25
2022-08-18T02:25:14.579Z,86049.50
2022-08-18T02:27:43.109Z,86054.09
2022-08-18T02:30:14.226Z,86052.31
2022-08-18T02:32:43.285Z,86044.66
2022-08-18T02:35:12.274Z,86052.56
2022-08-18T02:37:42.196Z,86030.69
2022-08-18T02:40:15.010Z,86047.22
2022-08-18T02:42:46.492Z,86051.13
2022-08-18T02:45:15.109Z,86053.00
2022-08-18T02:47:44.333Z,86043.47
2022-08-18T02:50:14.079Z,86048.84
2022-08-18T02:52:41.605Z,86032.56
2022-08-18T02:55:10.300Z,86029.59
2022-08-18T02:57:42.233Z,85998.88
2022-08-18T03:00:16.554Z,86038.88
2022-08-18T03:02:48.676Z,86041.41
2022-08-18T03:05:16.698Z,86048.25
2022-08-18T03:07:45.595Z,86044.00
2022-08-18T03:10:32.732Z,86042.78
2022-08-18T03:13:01.935Z,86046.53
2022-08-18T03:15:30.002Z,86042.97
2022-08-18T03:17:58.343Z,86034.13
2022-08-18T03:20:30.199Z,86061.88
2022-08-18T03:22:58.995Z,86024.56
2022-08-18T03:25:26.564Z,86045.50
2022-08-18T03:27:54.457Z,86038.03
2022-08-18T03:30:22.022Z,86060.09
2022-08-18T03:32:53.627Z,85959.34
2022-08-18T03:35:23.468Z,86026.97
2022-08-18T03:37:51.807Z,86052.66
2022-08-18T03:40:19.467Z,86060.50
2022-08-18T03:42:46.932Z,86032.56
2022-08-18T03:45:17.746Z,86031.13
2022-08-18T03:47:46.222Z,86060.66
2022-08-18T03:50:14.365Z,86023.34
2022-08-18T03:52:42.396Z,86055.53
2022-08-18T03:55:10.165Z,86074.44
2022-08-18T03:57:38.951Z,86049.03
2022-08-18T04:00:09.806Z,86075.94
2022-08-18T04:02:38.243Z,86071.31
2022-08-18T04:05:07.272Z,86049.84
2022-08-18T04:07:37.500Z,86068.56
2022-08-18T04:10:05.643Z,86066.53
2022-08-18T04:12:43.373Z,86035.84
2022-08-18T04:15:11.323Z,86072.75
2022-08-18T04:17:56.059Z,86053.13
2022-08-18T04:20:28.303Z,86058.97
2022-08-18T04:22:57.088Z,86067.69
2022-08-18T04:25:28.350Z,86081.31
2022-08-18T04:28:01.338Z,86073.66
2022-08-18T04:30:29.253Z,86067.28
2022-08-18T04:32:56.739Z,86045.88
2022-08-18T04:35:24.534Z,86088.28
2022-08-18T04:37:52.236Z,86072.97
2022-08-18T04:40:24.970Z,86080.91
2022-08-18T04:42:52.834Z,86087.75
2022-08-18T04:45:20.466Z,86031.28
2022-08-18T04:47:48.080Z,86051.38
2022-08-18T04:50:15.594Z,86090.16
2022-08-18T04:53:03.760Z,86052.00
2022-08-18T04:55:31.276Z,86092.50
2022-08-18T04:57:59.646Z,86077.50
2022-08-18T05:00:26.997Z,86087.22
2022-08-18T05:02:54.669Z,86063.88
2022-08-18T05:05:23.842Z,86075.81
2022-08-18T05:07:51.370Z,86074.97
2022-08-18T05:10:19.455Z,86066.81
2022-08-18T05:12:48.685Z,86067.97
2022-08-18T05:15:19.064Z,86093.72
2022-08-18T05:17:49.322Z,86069.00
2022-08-18T05:20:19.050Z,86095.13
2022-08-18T05:22:46.989Z,86066.28
2022-08-18T05:25:15.419Z,86070.72
2022-08-18T05:27:44.250Z,86110.25
2022-08-18T05:30:13.797Z,86096.78
2022-08-18T05:32:48.520Z,86098.81
2022-08-18T05:35:34.301Z,86105.81
2022-08-18T05:38:26.351Z,86097.78
2022-08-18T05:41:14.274Z,86103.28
2022-08-18T05:43:51.515Z,86087.13
2022-08-18T05:46:25.403Z,86089.22
2022-08-18T05:48:53.094Z,86107.16
2022-08-18T05:51:29.716Z,86102.00
2022-08-18T05:54:16.689Z,86113.69
2022-08-18T05:56:47.578Z,86069.75
2022-08-18T05:59:26.721Z,86090.50
2022-08-18T06:02:04.587Z,86116.47
2022-08-18T06:04:48.232Z,86110.44
2022-08-18T06:07:34.968Z,86111.25
2022-08-18T06:10:06.609Z,86128.06
2022-08-18T06:12:46.692Z,86117.97
2022-08-18T06:15:21.195Z,86116.91
2022-08-18T06:17:58.337Z,86116.34
2022-08-18T06:20:50.981Z,86049.56
2022-08-18T06:23:41.278Z,86115.44
2022-08-18T06:26:13.865Z,86115.19
2022-08-18T06:29:01.229Z,86109.03
2022-08-18T06:31:46.966Z,86116.16
2022-08-18T06:34:41.147Z,86122.19
2022-08-18T06:37:56.691Z,86121.13
2022-08-18T06:40:24.981Z,86111.09
2022-08-18T06:42:52.663Z,86112.94
2022-08-18T06:45:35.769Z,86121.38
2022-08-18T06:48:15.170Z,86116.13
2022-08-18T06:50:52.393Z,86107.53
2022-08-18T06:53:27.311Z,86101.69
2022-08-18T06:55:56.361Z,86106.91
2022-08-18T06:58:30.516Z,86083.59
2022-08-18T07:01:01.886Z,86110.47
2022-08-18T07:03:46.842Z,86112.13
2022-08-18T07:06:42.138Z,86100.34
2022-08-18T07:09:23.642Z,86071.78
2022-08-18T07:12:03.670Z,86099.19
2022-08-18T07:14:31.387Z,86096.47
2022-08-18T07:17:09.123Z,86078.69
2022-08-18T07:19:37.235Z,86121.63
2022-08-18T07:22:14.956Z,86106.53
2022-08-18T07:24:49.158Z,86081.38
2022-08-18T07:27:19.358Z,86125.06
2022-08-18T07:30:08.612Z,86125.97
2022-08-18T07:32:48.924Z,86079.03
2022-08-18T07:35:24.412Z,86071.56
2022-08-18T07:38:18.696Z,86097.97
2022-08-18T07:40:59.794Z,86123.47
2022-08-18T07:43:52.087Z,86120.16
2022-08-18T07:46:39.591Z,86124.16
2022-08-18T07:49:08.348Z,86126.63
2022-08-18T07:51:53.074Z,86121.75
2022-08-18T07:54:51.104Z,86115.13
2022-08-18T07:57:42.254Z,86085.72
2022-08-18T08:01:02.879Z,86107.81
2022-08-18T08:03:45.121Z,86116.19
2022-08-18T08:06:28.694Z,86099.03
2022-08-18T08:09:14.492Z,86115.97
2022-08-18T08:11:57.035Z,86104.78
2022-08-18T08:14:56.715Z,86112.59
2022-08-18T08:17:47.958Z,86108.97
2022-08-18T08:20:39.808Z,86102.63
2022-08-18T08:23:28.847Z,86117.00
2022-08-18T08:26:05.335Z,86110.78
2022-08-18T08:28:50.343Z,86121.31
2022-08-18T08:31:37.196Z,86118.47
2022-08-18T08:34:20.425Z,86126.94
2022-08-18T08:36:49.353Z,86127.25
2022-08-18T08:39:26.012Z,86124.31
2022-08-18T08:42:31.815Z,86084.53
2022-08-18T08:45:10.467Z,86095.44
2022-08-18T08:47:50.122Z,86120.50
2022-08-18T08:50:23.647Z,86110.66
2022-08-18T08:53:17.057Z,86101.03
2022-08-18T08:55:51.512Z,86103.69
2022-08-18T08:58:46.663Z,86103.53
2022-08-18T09:01:35.784Z,86119.78
2022-08-18T09:04:18.229Z,86082.94
2022-08-18T09:07:02.886Z,86118.38
2022-08-18T09:09:49.067Z,86053.50
2022-08-18T09:12:58.756Z,86041.25
2022-08-18T09:15:53.695Z,86111.41
2022-08-18T09:18:37.483Z,86118.59
2022-08-18T09:21:37.959Z,86103.34
2022-08-18T09:24:15.692Z,86107.19
2022-08-18T09:27:15.511Z,86106.13
2022-08-18T09:30:00.340Z,86105.28
2022-08-18T09:32:28.075Z,86107.41
2022-08-18T09:35:25.081Z,86088.34
2022-08-18T09:38:41.572Z,86122.03
2022-08-18T09:41:36.065Z,86088.75
2022-08-18T09:44:11.938Z,86088.38
2022-08-18T09:46:53.720Z,86102.19
2022-08-18T09:49:27.417Z,86101.53
2022-08-18T09:52:02.135Z,86113.59
2022-08-18T09:54:32.184Z,86105.06
2022-08-18T09:57:19.483Z,86102.50
2022-08-18T09:59:49.172Z,86105.06
2022-08-18T10:05:22.518Z,86104.88
2022-08-18T10:08:08.116Z,86105.84
2022-08-18T10:11:08.983Z,86092.13
2022-08-18T10:13:53.386Z,86073.34
2022-08-18T10:16:21.532Z,86102.00
2022-08-18T10:19:14.720Z,86101.97
2022-08-18T10:22:01.653Z,86097.75
2022-08-18T10:24:56.768Z,86048.44
2022-08-18T10:27:45.261Z,86079.13
2022-08-18T10:31:06.521Z,86096.47
2022-08-18T10:34:16.369Z,86091.84
2022-08-18T10:36:58.883Z,86098.50
2022-08-18T10:39:41.800Z,86094.91
2022-08-18T10:42:34.335Z,86047.63
2022-08-18T10:45:31.005Z,86048.25
2022-08-18T10:48:19.745Z,86101.50
2022-08-18T10:51:00.180Z,86106.34
2022-08-18T10:53:55.309Z,86096.16
2022-08-18T10:56:33.512Z,86095.19
2022-08-18T10:59:16.340Z,86095.06
2022-08-18T11:02:06.085Z,86085.78
2022-08-18T11:04:43.289Z,86078.88
2022-08-18T11:07:26.492Z,86086.94
2022-08-18T11:10:13.319Z,86090.06
2022-08-18T11:13:07.609Z,86077.31
2022-08-18T11:16:03.655Z,86069.97
2022-08-18T11:18:43.431Z,86046.72
2022-08-18T11:21:32.941Z,86092.66
2022-08-18T11:24:22.093Z,86087.47
2022-08-18T11:26:53.105Z,86041.91
2022-08-18T11:29:40.214Z,86087.69
2022-08-18T11:32:32.625Z,86072.81
2022-08-18T11:35:11.219Z,86055.56
2022-08-18T11:37:51.600Z,86074.31
2022-08-18T11:41:02.378Z,86075.53
2022-08-18T11:43:17.368Z,86072.94
2022-08-18T11:46:02.897Z,86074.00
2022-08-18T11:48:52.103Z,86061.56
2022-08-18T11:51:32.746Z,86076.25
2022-08-18T11:54:13.396Z,86069.13
2022-08-18T11:56:40.999Z,86059.97
2022-08-18T11:59:52.265Z,86072.13
2022-08-18T12:02:19.339Z,86069.50
2022-08-18T12:05:08.687Z,86059.78
2022-08-18T12:07:57.025Z,86071.41
2022-08-18T12:10:29.437Z,86040.59
2022-08-18T12:13:03.490Z,86066.53
2022-08-18T12:15:46.660Z,86065.19
2022-08-18T12:21:06.902Z,86066.34
2022-08-18T12:23:39.069Z,86043.03
2022-08-18T12:26:26.994Z,86068.81
2022-08-18T12:29:08.956Z,86063.09
2022-08-18T12:34:29.636Z,86057.63
2022-08-18T12:37:10.267Z,86055.47
2022-08-18T12:39:43.435Z,86027.22
2022-08-18T12:42:12.893Z,86046.72
2022-08-18T12:44:41.840Z,86050.75
2022-08-18T12:47:23.707Z,86051.44
2022-08-18T12:49:52.425Z,86030.06
2022-08-18T12:52:20.721Z,86029.22
2022-08-18T12:54:55.401Z,86049.78
2022-08-18T12:57:51.704Z,86053.00
2022-08-18T13:00:18.738Z,86049.78
2022-08-18T13:02:47.125Z,86058.97
2022-08-18T13:05:15.827Z,86051.75
2022-08-18T13:07:46.763Z,86049.91
2022-08-18T13:10:21.815Z,86039.28
2022-08-18T13:13:03.951Z,86053.06
2022-08-18T13:15:33.668Z,86040.25
2022-08-18T13:18:02.969Z,86037.06
2022-08-18T13:20:32.319Z,86054.25
2022-08-18T13:23:00.542Z,86041.97
2022-08-18T13:25:38.347Z,86049.38
2022-08-18T13:28:08.011Z,86042.84
2022-08-18T13:30:36.710Z,86029.75
2022-08-18T13:33:35.228Z,86029.22
2022-08-18T13:35:57.103Z,86037.47
2022-08-18T13:38:27.820Z,86038.66
2022-08-18T13:41:01.071Z,86060.38
2022-08-18T13:43:34.431Z,86037.19
2022-08-18T13:46:09.094Z,86026.28
2022-08-18T13:48:41.607Z,86018.72
2022-08-18T13:51:15.309Z,86013.19
2022-08-18T13:53:51.134Z,86034.88
2022-08-18T13:56:31.322Z,86040.13
2022-08-18T13:59:00.128Z,86023.09
2022-08-18T14:01:51.307Z,86059.00
2022-08-18T14:04:20.021Z,86025.31
2022-08-18T14:06:56.856Z,86032.06
2022-08-18T14:09:27.923Z,86053.94
2022-08-18T14:12:22.927Z,86050.13
2022-08-18T14:14:54.269Z,86022.38
2022-08-18T14:17:25.767Z,86051.31
2022-08-18T14:20:15.346Z,86053.16
2022-08-18T14:23:11.099Z,86036.53
2022-08-18T14:25:59.677Z,86041.09
2022-08-18T14:28:30.534Z,86050.53
2022-08-18T14:31:01.681Z,86016.06
2022-08-18T14:33:49.390Z,86045.38
2022-08-18T14:36:20.454Z,86042.84
2022-08-18T14:39:00.715Z,86036.41
2022-08-18T14:41:30.620Z,86040.63
2022-08-18T14:44:13.042Z,86041.44
2022-08-18T14:46:54.562Z,86037.13
2022-08-18T14:49:28.389Z,86022.28
2022-08-18T14:52:00.466Z,86040.63
2022-08-18T14:54:30.583Z,86034.91
2022-08-18T14:57:05.604Z,86030.00
2022-08-18T14:59:37.674Z,86025.59
2022-08-18T15:02:11.115Z,86021.25
2022-08-18T15:04:55.966Z,85977.28
2022-08-18T15:07:25.011Z,86025.28
2022-08-18T15:10:15.198Z,86003.38
2022-08-18T15:12:45.311Z,86006.72
2022-08-18T15:15:17.660Z,86020.53
2022-08-18T15:17:50.309Z,86016.00
2022-08-18T15:20:29.770Z,86002.19
2022-08-18T15:23:24.873Z,86031.94
2022-08-18T15:25:56.759Z,86011.91
2022-08-18T15:28:27.812Z,86031.25
2022-08-18T15:33:44.497Z,86030.41
2022-08-18T15:36:28.736Z,86016.81
2022-08-18T15:38:59.684Z,86032.28
2022-08-18T15:44:22.791Z,85988.88
2022-08-18T15:46:53.457Z,85971.50
2022-08-18T15:49:24.697Z,85991.53
2022-08-18T15:51:57.901Z,86023.88
2022-08-18T15:54:26.212Z,86027.03
2022-08-18T15:56:58.324Z,86010.00
2022-08-18T15:59:39.737Z,86029.94
2022-08-18T16:02:11.553Z,86038.13
2022-08-18T16:04:44.910Z,86033.03
2022-08-18T16:07:17.888Z,86031.88
2022-08-18T16:09:54.233Z,86001.50
2022-08-18T16:12:22.168Z,86037.38
2022-08-18T16:14:53.151Z,86026.78
2022-08-18T16:17:29.884Z,86015.69
2022-08-18T16:20:00.228Z,86031.94
2022-08-18T16:22:29.089Z,86040.34
2022-08-18T16:24:57.001Z,86031.94
2022-08-18T16:27:25.394Z,86037.94
2022-08-18T16:29:53.786Z,86016.81
2022-08-18T16:32:21.864Z,86026.31
2022-08-18T16:34:50.298Z,86036.94
2022-08-18T16:37:18.360Z,86015.81
2022-08-18T16:39:46.816Z,86003.91
2022-08-18T16:42:15.558Z,86027.94
2022-08-18T16:44:44.393Z,86001.38
2022-08-18T16:47:14.737Z,86019.59
2022-08-18T16:49:43.463Z,86022.34
2022-08-18T16:52:14.316Z,86040.22
2022-08-18T16:54:44.446Z,86032.28
2022-08-18T16:57:13.843Z,86037.97
2022-08-18T17:00:01.093Z,86035.56
2022-08-18T17:03:01.719Z,86009.13
2022-08-18T17:05:34.632Z,85933.94
2022-08-18T17:08:04.421Z,86038.94
2022-08-18T17:10:48.227Z,85966.16
2022-08-18T17:13:23.821Z,85968.31
2022-08-18T17:15:51.838Z,86037.50
2022-08-18T17:18:20.210Z,86047.50
2022-08-18T17:20:48.366Z,86029.44
2022-08-18T17:23:16.311Z,86025.13
2022-08-18T17:25:45.789Z,86036.22
2022-08-18T17:28:23.862Z,86046.91
2022-08-18T17:30:54.164Z,86058.25
2022-08-18T17:33:28.737Z,86034.31
2022-08-18T17:35:58.671Z,86064.34
2022-08-18T17:38:36.460Z,86008.47
2022-08-18T17:41:05.802Z,86021.16
2022-08-18T17:43:36.338Z,86060.13
2022-08-18T17:46:15.181Z,86057.16
2022-08-18T17:48:48.730Z,86051.59
2022-08-18T17:51:43.396Z,86063.19
2022-08-18T17:54:38.493Z,86067.22
2022-08-18T17:57:17.147Z,86028.78
2022-08-18T17:59:52.377Z,86014.53
2022-08-18T18:02:29.673Z,86075.81
2022-08-18T18:05:00.738Z,86051.53
2022-08-18T18:07:35.988Z,86073.75
2022-08-18T18:10:40.161Z,86052.50
2022-08-18T18:13:13.338Z,86077.50
2022-08-18T18:15:44.665Z,86044.25
2022-08-18T18:18:23.436Z,86088.69
2022-08-18T18:21:19.712Z,86092.31
2022-08-18T18:23:56.633Z,86073.69
2022-08-18T18:26:35.252Z,86074.19
2022-08-18T18:29:37.949Z,86089.09
2022-08-18T18:32:45.889Z,86090.38
2022-08-18T18:35:17.220Z,86056.91
2022-08-18T18:37:53.610Z,86044.28
2022-08-18T18:40:32.689Z,86091.69
2022-08-18T18:43:25.996Z,86096.13
2022-08-18T18:46:18.367Z,86097.41
2022-08-18T18:49:08.559Z,86104.69
2022-08-18T18:51:44.207Z,86111.28
2022-08-18T18:54:15.146Z,86108.56
2022-08-18T18:56:53.513Z,86113.25
2022-08-18T18:59:35.299Z,86113.34
2022-08-18T19:02:32.881Z,86116.56
2022-08-18T19:05:26.826Z,86107.50
2022-08-18T19:08:19.932Z,86110.72
2022-08-18T19:11:08.874Z,86120.69
2022-08-18T19:13:49.469Z,86104.41
2022-08-18T19:16:33.661Z,86099.91
2022-08-18T19:19:35.513Z,86107.44
2022-08-18T19:22:19.850Z,86104.88
2022-08-18T19:24:56.553Z,86101.03
2022-08-18T19:27:37.210Z,86107.81
2022-08-18T19:30:13.609Z,86104.69
2022-08-18T19:32:48.441Z,86113.03
2022-08-18T19:35:19.765Z,86110.34
2022-08-18T19:38:12.675Z,86112.16
2022-08-18T19:40:54.788Z,86101.38
2022-08-18T19:43:36.384Z,86106.94
2022-08-18T19:46:27.171Z,86104.88
2022-08-18T19:49:04.666Z,86076.63
2022-08-18T19:51:40.054Z,86107.28
2022-08-18T19:54:40.628Z,86108.75
2022-08-18T19:57:19.268Z,86104.66
2022-08-18T20:00:27.850Z,86077.19
2022-08-18T20:03:18.979Z,86106.50
2022-08-18T20:06:33.372Z,86099.59
2022-08-18T20:09:02.772Z,86100.63
2022-08-18T20:11:48.472Z,86100.81
2022-08-18T20:14:21.839Z,86102.41
2022-08-18T20:17:10.602Z,86090.06
2022-08-18T20:19:40.047Z,86100.94
2022-08-18T20:22:16.131Z,86102.88
2022-08-18T20:24:52.319Z,86105.47
2022-08-18T20:27:40.837Z,86098.56
2022-08-18T20:30:09.448Z,86094.94
2022-08-18T20:32:36.964Z,86068.63
2022-08-18T20:35:41.316Z,86082.69
2022-08-18T20:38:34.306Z,86100.31
2022-08-18T20:41:32.481Z,86097.84
2022-08-18T20:44:29.547Z,86103.78
2022-08-18T20:47:06.470Z,86104.47
2022-08-18T20:49:53.997Z,86099.16
2022-08-18T20:52:37.809Z,86091.69
2022-08-18T20:55:36.391Z,86098.69
2022-08-18T20:58:12.967Z,86058.59
2022-08-18T21:00:44.987Z,86088.13
2022-08-18T21:03:15.461Z,86073.72
2022-08-18T21:05:45.470Z,86094.50
2022-08-18T21:08:16.989Z,86103.56
2022-08-18T21:10:51.676Z,86082.78
2022-08-18T21:13:41.267Z,86096.47
2022-08-18T21:16:38.649Z,86074.50
2022-08-18T21:19:23.768Z,86095.28
2022-08-18T21:21:56.471Z,86060.25
2022-08-18T21:24:51.093Z,86089.34
2022-08-18T21:27:36.286Z,86089.34
2022-08-18T21:30:09.422Z,86091.13
2022-08-18T21:32:38.854Z,86085.16
2022-08-18T21:35:30.027Z,86077.03
2022-08-18T21:38:01.759Z,86074.88
2022-08-18T21:40:39.139Z,86079.28
2022-08-18T21:43:13.503Z,86079.28
2022-08-18T21:45:56.236Z,86048.13
2022-08-18T21:48:24.012Z,86047.25
2022-08-18T21:50:58.602Z,86073.25
2022-08-18T21:53:34.707Z,86060.19
2022-08-18T21:56:03.299Z,86065.72
2022-08-18T21:58:47.226Z,86073.66
2022-08-18T22:01:22.163Z,86073.31
2022-08-18T22:03:53.201Z,86078.94
2022-08-18T22:06:35.948Z,86079.81
2022-08-18T22:09:28.553Z,86075.44
2022-08-18T22:12:53.267Z,86075.97
2022-08-18T22:15:21.462Z,86075.63
2022-08-18T22:18:35.730Z,86078.44
2022-08-18T22:21:08.188Z,86066.75
2022-08-18T22:24:04.163Z,86083.50
2022-08-18T22:26:36.216Z,86070.56
2022-08-18T22:29:10.597Z,86081.44
2022-08-18T22:31:45.743Z,86072.41
2022-08-18T22:34:27.903Z,86062.88
2022-08-18T22:37:13.863Z,86072.41
2022-08-18T22:40:00.717Z,86070.16
2022-08-18T22:42:34.968Z,86057.53
2022-08-18T22:45:13.705Z,86003.38
2022-08-18T22:47:45.086Z,86068.72
2022-08-18T22:50:14.636Z,86070.16
2022-08-18T22:52:48.426Z,86066.47
2022-08-18T22:55:22.055Z,86064.53
2022-08-18T22:57:56.115Z,86062.97
2022-08-18T23:00:26.282Z,86057.34
2022-08-18T23:02:55.442Z,86055.97
2022-08-18T23:05:23.938Z,86019.38
2022-08-18T23:07:51.939Z,86048.41
2022-08-18T23:10:19.401Z,86066.66
2022-08-18T23:12:48.855Z,86028.00
2022-08-18T23:15:18.259Z,86050.81
2022-08-18T23:17:45.976Z,86062.41
2022-08-18T23:20:18.010Z,86038.50
2022-08-18T23:22:48.339Z,86073.69
2022-08-18T23:25:17.435Z,86015.41
2022-08-18T23:27:45.594Z,86051.72
2022-08-18T23:30:15.412Z,86045.00
2022-08-18T23:32:43.956Z,86062.78
2022-08-18T23:35:12.203Z,86046.47
2022-08-18T23:37:41.790Z,86053.19
2022-08-18T23:40:15.872Z,86060.75
2022-08-18T23:42:44.104Z,86064.34
2022-08-18T23:45:12.533Z,86044.03
2022-08-18T23:47:41.667Z,86060.28
2022-08-18T23:50:11.662Z,86055.50
2022-08-18T23:52:41.708Z,86038.50
2022-08-18T23:55:14.043Z,86061.03
2022-08-18T23:57:41.768Z,86048.91
